Time;durP1;ratioP1;P1;durP2;ratioP2;P2;SDS_P1;SDS_P2;PMS_P1;PMS_P2;Temp;Humidity;BMP_temperature;BMP_pressure;BME280_temperature;BME280_humidity;BME280_pressure;Samples;Min_cycle;Max_cycle;Signal;HPM_P1;HPM_P2
2023/09/15 00:01:19;;;;;;;4.20;2.93;;;;;;;14.71;100.00;100543.47;4977212;28;20272;-79
2023/09/15 00:03:44;;;;;;;5.23;2.90;;;;;;;14.72;100.00;100534.75;4974596;28;20321;-79
2023/09/15 00:06:10;;;;;;;5.83;2.90;;;;;;;14.68;100.00;100540.91;4968687;28;20240;-79
2023/09/15 00:08:35;;;;;;;3.40;2.60;;;;;;;14.70;100.00;100539.13;4966227;28;20275;-79
2023/09/15 00:11:00;;;;;;;6.27;3.00;;;;;;;14.65;100.00;100535.75;4981915;28;20440;-77
2023/09/15 00:13:27;;;;;;;4.27;3.13;;;;;;;14.60;100.00;100541.06;4976162;28;20775;-79
2023/09/15 00:15:52;;;;;;;4.00;2.50;;;;;;;14.59;100.00;100539.38;4969350;28;20204;-80
2023/09/15 00:18:21;;;;;;;3.00;2.67;;;;;;;14.56;100.00;100546.38;4969349;28;20186;-78
2023/09/15 00:20:46;;;;;;;5.20;2.80;;;;;;;14.55;100.00;100542.91;4966179;28;20731;-79
2023/09/15 00:23:11;;;;;;;5.27;2.90;;;;;;;14.53;100.00;100538.59;4972890;28;20236;-78
2023/09/15 00:25:37;;;;;;;4.03;3.10;;;;;;;14.44;100.00;100543.13;4971095;28;20192;-79
2023/09/15 00:28:03;;;;;;;5.03;2.70;;;;;;;14.40;100.00;100538.88;4961702;28;20197;-78
2023/09/15 00:30:29;;;;;;;3.43;2.70;;;;;;;14.35;100.00;100539.88;4979156;28;20187;-80
2023/09/15 00:32:55;;;;;;;4.00;2.67;;;;;;;14.31;100.00;100537.31;4963679;28;20190;-79
2023/09/15 00:35:23;;;;;;;4.90;3.10;;;;;;;14.32;100.00;100533.81;4963289;28;20194;-79
2023/09/15 00:37:50;;;;;;;3.87;2.70;;;;;;;14.27;100.00;100538.28;4956973;28;20400;-80
2023/09/15 00:40:18;;;;;;;5.57;3.00;;;;;;;14.26;100.00;100536.56;4974878;28;20198;-79
2023/09/15 00:42:45;;;;;;;3.97;2.70;;;;;;;14.25;100.00;100536.59;4978014;28;20195;-78
2023/09/15 00:45:14;;;;;;;3.17;2.53;;;;;;;14.22;100.00;100527.09;4968111;28;20194;-80
2023/09/15 00:47:46;;;;;;;6.47;3.00;;;;;;;14.22;100.00;100526.25;4960560;28;20196;-78
2023/09/15 00:50:14;;;;;;;5.03;3.13;;;;;;;14.20;100.00;100526.28;4959764;28;20773;-78
2023/09/15 00:52:42;;;;;;;5.13;3.20;;;;;;;14.15;100.00;100523.75;4978002;28;20286;-78
2023/09/15 00:55:08;;;;;;;4.13;3.07;;;;;;;14.11;100.00;100524.72;4969270;28;20208;-79
2023/09/15 00:57:37;;;;;;;4.27;3.00;;;;;;;14.06;100.00;100525.69;4968731;28;20259;-78
2023/09/15 01:00:03;;;;;;;3.60;3.27;;;;;;;14.03;100.00;100529.22;4973705;28;20185;-79
2023/09/15 01:02:29;;;;;;;3.43;2.93;;;;;;;13.96;100.00;100525.00;4972926;28;20651;-79
2023/09/15 01:04:54;;;;;;;4.30;2.90;;;;;;;13.93;100.00;100525.06;4968405;28;20224;-79
2023/09/15 01:07:20;;;;;;;4.17;3.60;;;;;;;13.92;100.00;100520.75;4965415;28;20189;-79
2023/09/15 01:09:45;;;;;;;4.57;2.80;;;;;;;13.87;100.00;100515.63;4965204;28;20182;-79
2023/09/15 01:12:10;;;;;;;5.30;3.17;;;;;;;13.82;100.00;100513.13;4967552;28;20201;-79
2023/09/15 01:14:36;;;;;;;4.77;3.17;;;;;;;13.88;100.00;100514.75;4966560;28;20215;-78
2023/09/15 01:17:19;;;;;;;5.07;3.20;;;;;;;13.80;100.00;100514.03;4960876;28;20306;-78
2023/09/15 01:20:09;;;;;;;7.00;3.37;;;;;;;13.76;100.00;100512.38;4961938;28;20241;-79
2023/09/15 01:22:56;;;;;;;5.13;3.30;;;;;;;13.74;100.00;100509.81;4981184;28;20203;-78
2023/09/15 01:25:48;;;;;;;3.87;2.70;;;;;;;13.69;100.00;100514.25;4974810;28;20185;-79
2023/09/15 01:28:22;;;;;;;4.03;3.30;;;;;;;13.69;100.00;100512.47;4969424;28;20225;-78
2023/09/15 01:30:50;;;;;;;3.70;3.00;;;;;;;13.76;100.00;100508.06;4975115;28;20211;-81
2023/09/15 01:33:18;;;;;;;7.43;3.33;;;;;;;13.77;100.00;100509.75;4960831;28;20212;-80
2023/09/15 01:35:43;;;;;;;4.30;3.30;;;;;;;13.71;100.00;100500.31;4968497;28;20221;-78
2023/09/15 01:38:09;;;;;;;8.40;3.93;;;;;;;13.64;100.00;100497.84;4967189;28;20278;-80
2023/09/15 01:40:34;;;;;;;4.87;3.70;;;;;;;13.60;100.00;100498.81;4965455;28;20871;-78
2023/09/15 01:42:59;;;;;;;4.43;3.43;;;;;;;13.59;100.00;100503.13;4968666;28;20204;-78
2023/09/15 01:45:25;;;;;;;4.23;3.10;;;;;;;13.54;100.00;100489.34;4971407;28;20266;-79
2023/09/15 01:47:51;;;;;;;5.30;3.20;;;;;;;13.52;100.00;100497.19;4963159;28;20322;-79
2023/09/15 01:50:17;;;;;;;3.90;3.50;;;;;;;13.45;100.00;100494.72;4963366;28;20684;-79
2023/09/15 01:52:44;;;;;;;4.17;3.10;;;;;;;13.48;100.00;100497.28;4968804;28;20223;-78
2023/09/15 01:55:09;;;;;;;5.23;3.30;;;;;;;13.48;100.00;100492.94;4968859;28;20207;-78
2023/09/15 01:57:35;;;;;;;4.93;3.40;;;;;;;13.56;100.00;100487.59;4975469;28;20727;-78
2023/09/15 02:00:00;;;;;;;5.50;3.60;;;;;;;13.53;100.00;100495.47;4969417;28;20279;-79
2023/09/15 02:02:26;;;;;;;3.77;3.43;;;;;;;13.57;100.00;100497.09;4975634;28;21014;-79
2023/09/15 02:04:51;;;;;;;4.27;3.67;;;;;;;13.54;100.00;100494.56;4969528;28;20213;-80
2023/09/15 02:07:16;;;;;;;5.93;3.73;;;;;;;13.48;100.00;100498.13;4976171;28;20231;-79
2023/09/15 02:09:42;;;;;;;5.13;3.57;;;;;;;13.46;100.00;100494.69;4972192;28;20195;-78
2023/09/15 02:12:07;;;;;;;6.77;3.43;;;;;;;13.52;100.00;100504.16;4971924;28;20198;-78
2023/09/15 02:14:34;;;;;;;5.17;3.83;;;;;;;13.40;100.00;100500.84;4969321;28;20213;-79
2023/09/15 02:17:00;;;;;;;5.90;3.90;;;;;;;13.47;100.00;100499.00;4978468;28;20254;-79
2023/09/15 02:19:25;;;;;;;4.73;3.93;;;;;;;13.44;100.00;100506.00;4981883;28;20215;-78
2023/09/15 02:21:51;;;;;;;5.57;3.63;;;;;;;13.38;100.00;100497.41;4972123;28;20186;-78
2023/09/15 02:24:16;;;;;;;4.53;3.47;;;;;;;13.41;100.00;100502.56;4988448;28;20215;-79
2023/09/15 02:26:41;;;;;;;4.67;3.50;;;;;;;13.38;100.00;100502.63;4981568;28;20189;-79
2023/09/15 02:29:07;;;;;;;5.20;3.70;;;;;;;13.26;100.00;100508.00;4969878;28;20732;-79
2023/09/15 02:31:32;;;;;;;4.03;3.63;;;;;;;13.34;100.00;100500.94;4972094;28;20201;-78
2023/09/15 02:34:00;;;;;;;3.90;3.47;;;;;;;13.34;100.00;100500.94;4964124;28;20572;-79
2023/09/15 02:36:26;;;;;;;5.00;4.10;;;;;;;13.23;100.00;100492.47;4974785;28;20697;-79
2023/09/15 02:38:54;;;;;;;5.57;3.27;;;;;;;13.22;100.00;100496.81;4973041;28;20251;-79
2023/09/15 02:41:20;;;;;;;5.03;4.00;;;;;;;13.24;100.00;100499.38;4969559;28;20604;-79
2023/09/15 02:43:46;;;;;;;5.83;3.80;;;;;;;13.17;100.00;100498.63;4978797;28;20203;-79
2023/09/15 02:46:11;;;;;;;4.60;3.57;;;;;;;13.10;100.00;100508.25;4958598;28;20216;-81
2023/09/15 02:48:36;;;;;;;4.00;3.60;;;;;;;13.04;100.00;100495.38;4972919;28;20183;-79
2023/09/15 02:51:03;;;;;;;3.57;3.27;;;;;;;13.03;100.00;100492.78;4973544;28;20274;-78
2023/09/15 02:53:29;;;;;;;2.67;2.47;;;;;;;13.02;100.00;100496.25;4983552;28;20215;-80
2023/09/15 02:55:59;;;;;;;5.27;3.50;;;;;;;12.99;100.00;100496.34;4959845;28;20238;-79
2023/09/15 02:58:25;;;;;;;4.33;3.73;;;;;;;12.98;100.00;100492.00;4973324;28;20218;-79
2023/09/15 03:00:50;;;;;;;4.23;3.50;;;;;;;12.97;100.00;100488.53;4977010;28;20198;-78
2023/09/15 03:03:16;;;;;;;4.00;3.60;;;;;;;12.98;100.00;100495.47;4972482;28;20701;-79
2023/09/15 03:05:41;;;;;;;4.63;3.50;;;;;;;12.93;100.00;100492.09;4968967;28;20239;-79
2023/09/15 03:08:06;;;;;;;3.77;3.40;;;;;;;12.92;100.00;100495.56;4975829;28;20194;-79
2023/09/15 03:10:34;;;;;;;3.80;3.23;;;;;;;12.94;100.00;100497.25;4968904;28;20465;-79
2023/09/15 03:13:02;;;;;;;4.73;3.63;;;;;;;13.01;100.00;100491.97;4971703;28;20196;-78
2023/09/15 03:15:27;;;;;;;4.40;3.30;;;;;;;12.94;100.00;100489.47;4965732;28;20198;-78
2023/09/15 03:17:53;;;;;;;4.43;2.93;;;;;;;12.93;100.00;100492.09;4962414;28;20708;-79
2023/09/15 03:20:19;;;;;;;4.53;3.50;;;;;;;12.92;100.00;100492.97;4970116;28;20802;-80
2023/09/15 03:22:46;;;;;;;7.57;4.30;;;;;;;12.93;100.00;100492.94;4964960;28;20194;-78
2023/09/15 03:25:13;;;;;;;4.93;3.70;;;;;;;12.88;100.00;100494.72;4963650;28;20211;-80
2023/09/15 03:27:38;;;;;;;4.90;3.73;;;;;;;12.82;100.00;100484.47;4958937;28;20195;-80
2023/09/15 03:30:04;;;;;;;4.57;3.30;;;;;;;12.81;100.00;100491.38;4961142;28;20270;-79
2023/09/15 03:32:30;;;;;;;4.77;3.70;;;;;;;12.81;100.00;100485.34;4963950;28;20195;-80
2023/09/15 03:34:55;;;;;;;4.30;3.90;;;;;;;12.75;100.00;100481.09;4964707;28;20210;-80
2023/09/15 03:37:21;;;;;;;6.17;4.00;;;;;;;12.80;100.00;100473.22;4970494;28;20224;-81
2023/09/15 03:39:46;;;;;;;4.70;3.93;;;;;;;12.80;100.00;100484.47;4955084;28;20198;-78
2023/09/15 03:42:11;;;;;;;5.03;3.43;;;;;;;12.80;100.00;100479.28;4957231;28;20196;-78
2023/09/15 03:44:37;;;;;;;3.93;3.40;;;;;;;12.81;100.00;100480.16;4958874;28;20748;-77
2023/09/15 03:47:02;;;;;;;5.73;3.50;;;;;;;12.85;100.00;100480.94;4953675;28;20191;-79
2023/09/15 03:49:27;;;;;;;4.63;3.33;;;;;;;12.83;100.00;100474.91;4960347;28;20218;-77
2023/09/15 03:51:53;;;;;;;3.50;3.20;;;;;;;12.82;100.00;100474.06;4963250;28;20261;-79
2023/09/15 03:54:18;;;;;;;4.30;3.80;;;;;;;12.85;100.00;100475.75;4958478;28;20217;-78
2023/09/15 03:56:44;;;;;;;5.07;3.77;;;;;;;12.82;100.00;100474.06;4961227;28;20355;-78
2023/09/15 03:59:09;;;;;;;4.77;3.20;;;;;;;12.75;100.00;100470.72;4962999;28;20190;-78
2023/09/15 04:01:34;;;;;;;3.83;3.50;;;;;;;12.77;100.00;100470.69;4967231;28;20867;-79
2023/09/15 04:04:01;;;;;;;4.13;3.70;;;;;;;12.70;100.00;100471.66;4967872;28;20249;-78
2023/09/15 04:06:28;;;;;;;5.87;4.50;;;;;;;12.67;100.00;100474.28;4969248;28;20250;-77
2023/09/15 04:08:53;;;;;;;5.40;3.90;;;;;;;12.64;100.00;100470.88;4964723;28;20295;-78
2023/09/15 04:11:18;;;;;;;4.27;3.73;;;;;;;12.62;100.00;100463.97;4965338;28;20685;-78
2023/09/15 04:13:44;;;;;;;4.23;3.63;;;;;;;12.60;100.00;100470.94;4966586;28;20219;-78
2023/09/15 04:16:09;;;;;;;4.87;3.60;;;;;;;12.56;100.00;100466.66;4963345;28;20375;-78
2023/09/15 04:18:34;;;;;;;7.03;3.70;;;;;;;12.49;100.00;100471.94;4962409;28;20310;-79
2023/09/15 04:21:00;;;;;;;7.70;3.83;;;;;;;12.52;100.00;100472.75;4962841;28;20184;-78
2023/09/15 04:23:25;;;;;;;8.13;3.60;;;;;;;12.47;100.00;100472.84;4965964;28;20224;-78
2023/09/15 04:25:50;;;;;;;6.27;3.93;;;;;;;12.48;100.00;100469.34;4961550;28;20348;-78
2023/09/15 04:28:16;;;;;;;3.70;3.17;;;;;;;12.42;100.00;100475.50;4962977;28;20530;-79
2023/09/15 04:30:42;;;;;;;4.77;3.90;;;;;;;12.38;100.00;100465.19;4956745;28;20693;-79
2023/09/15 04:33:07;;;;;;;6.00;3.50;;;;;;;12.39;100.00;100466.91;4960360;28;20213;-78
2023/09/15 04:35:33;;;;;;;5.03;4.20;;;;;;;12.32;100.00;100468.72;4969159;28;20223;-78
2023/09/15 04:37:58;;;;;;;3.97;3.53;;;;;;;12.28;100.00;100467.88;4966152;28;20217;-79
2023/09/15 04:40:24;;;;;;;4.50;3.60;;;;;;;12.26;100.00;100467.03;4970486;28;20283;-79
2023/09/15 04:42:49;;;;;;;5.17;3.77;;;;;;;12.26;100.00;100468.78;4967600;28;20229;-79
2023/09/15 04:45:14;;;;;;;5.80;3.67;;;;;;;12.28;100.00;100469.63;4959729;28;20284;-79
2023/09/15 04:47:40;;;;;;;4.00;3.60;;;;;;;12.24;100.00;100474.00;4971922;28;20572;-79
2023/09/15 04:50:07;;;;;;;5.57;3.67;;;;;;;12.26;100.00;100472.22;4963301;28;20970;-80
2023/09/15 04:52:32;;;;;;;3.77;3.37;;;;;;;12.24;100.00;100474.00;4967746;28;20721;-79
2023/09/15 04:54:57;;;;;;;5.57;3.80;;;;;;;12.27;100.00;100468.75;4964512;28;20217;-79
2023/09/15 04:57:24;;;;;;;3.60;3.30;;;;;;;12.24;100.00;100468.81;4957188;28;20216;-79
2023/09/15 04:59:52;;;;;;;4.30;3.90;;;;;;;12.24;100.00;100475.72;4966992;28;20256;-79
2023/09/15 05:02:19;;;;;;;5.00;3.80;;;;;;;12.19;100.00;100471.44;4962856;28;20195;-79
2023/09/15 05:04:45;;;;;;;3.90;3.37;;;;;;;12.23;100.00;100477.50;4967444;28;20890;-78
2023/09/15 05:07:10;;;;;;;5.43;3.33;;;;;;;12.17;100.00;100470.63;4966316;28;20190;-80
2023/09/15 05:09:35;;;;;;;5.60;4.00;;;;;;;12.16;100.00;100474.13;4961088;28;20195;-79
2023/09/15 05:12:01;;;;;;;4.47;3.70;;;;;;;12.17;100.00;100474.97;4966996;28;20189;-79
2023/09/15 05:14:26;;;;;;;4.23;3.40;;;;;;;12.19;100.00;100474.03;4961700;28;20245;-79
2023/09/15 05:16:51;;;;;;;4.33;3.67;;;;;;;12.25;100.00;100472.25;4961456;28;20574;-80
2023/09/15 05:19:17;;;;;;;5.47;3.47;;;;;;;12.28;100.00;100473.06;4964749;28;20569;-80
2023/09/15 05:21:42;;;;;;;4.20;3.30;;;;;;;12.34;100.00;100477.31;4958418;28;20209;-79
2023/09/15 05:24:07;;;;;;;4.17;3.30;;;;;;;12.38;100.00;100484.19;4963456;28;20931;-80
2023/09/15 05:26:34;;;;;;;4.20;3.80;;;;;;;12.42;100.00;100478.09;4960322;28;20265;-79
2023/09/15 05:28:59;;;;;;;4.83;3.70;;;;;;;12.49;100.00;100481.47;4965571;28;20643;-79
2023/09/15 05:31:27;;;;;;;3.80;3.37;;;;;;;12.54;100.00;100479.66;4972953;28;20196;-81
2023/09/15 05:33:54;;;;;;;4.27;3.70;;;;;;;12.56;100.00;100480.47;4973736;28;20198;-81
2023/09/15 05:36:20;;;;;;;5.03;3.60;;;;;;;12.59;100.00;100489.97;4969605;28;20199;-80
2023/09/15 05:38:48;;;;;;;5.63;3.97;;;;;;;12.60;100.00;100495.16;4966054;28;20273;-80
2023/09/15 05:41:14;;;;;;;4.30;3.50;;;;;;;12.67;100.00;100497.66;4964190;28;20218;-80
2023/09/15 05:43:39;;;;;;;3.90;3.50;;;;;;;12.66;100.00;100494.19;4965412;28;20602;-80
2023/09/15 05:46:05;;;;;;;5.83;3.53;;;;;;;12.71;100.00;100495.00;4960721;28;20190;-78
2023/09/15 05:48:30;;;;;;;4.23;3.23;;;;;;;12.74;100.00;100489.78;4971709;28;20183;-78
2023/09/15 05:50:56;;;;;;;4.97;3.47;;;;;;;12.84;100.00;100500.00;4969036;28;20277;-78
2023/09/15 05:53:21;;;;;;;5.20;4.00;;;;;;;12.90;100.00;100503.38;4977267;28;20288;-78
2023/09/15 05:55:46;;;;;;;3.77;3.47;;;;;;;12.95;100.00;100505.88;4975431;28;20181;-80
2023/09/15 05:58:12;;;;;;;4.57;4.10;;;;;;;12.95;100.00;100503.28;4966680;28;20257;-80
2023/09/15 06:00:37;;;;;;;5.00;3.77;;;;;;;12.99;100.00;100504.13;4974223;28;20193;-79
2023/09/15 06:03:03;;;;;;;4.67;3.70;;;;;;;13.01;100.00;100504.97;4963412;28;20223;-78
2023/09/15 06:05:29;;;;;;;4.83;3.60;;;;;;;13.05;100.00;100504.00;4970353;28;20213;-78
2023/09/15 06:07:54;;;;;;;7.53;4.33;;;;;;;13.07;100.00;100508.31;4974091;28;20266;-78
2023/09/15 06:10:20;;;;;;;4.73;4.20;;;;;;;13.11;100.00;100499.56;4978939;28;20189;-80
2023/09/15 06:12:49;;;;;;;4.87;4.07;;;;;;;13.10;100.00;100513.44;4984529;28;20260;-79
2023/09/15 06:15:15;;;;;;;3.63;3.33;;;;;;;13.17;100.00;100502.97;4977731;28;20577;-78
2023/09/15 06:17:40;;;;;;;5.43;3.93;;;;;;;13.30;100.00;100490.63;4981996;28;20227;-78
2023/09/15 06:20:06;;;;;;;6.40;3.97;;;;;;;13.33;100.00;100491.44;4992748;28;20273;-79
2023/09/15 06:22:33;;;;;;;4.23;3.83;;;;;;;13.39;100.00;100493.91;4984230;28;20198;-78
2023/09/15 06:24:58;;;;;;;5.23;4.23;;;;;;;13.44;100.00;100490.41;4983075;28;20213;-80
2023/09/15 06:27:24;;;;;;;5.37;3.60;;;;;;;13.47;100.00;100495.56;4992274;28;20198;-80
2023/09/15 06:29:51;;;;;;;4.17;3.80;;;;;;;13.53;100.00;100500.66;4979877;28;20680;-79
2023/09/15 06:32:17;;;;;;;4.97;3.70;;;;;;;13.61;100.00;100498.78;4976058;28;20288;-79
2023/09/15 06:34:42;;;;;;;5.13;4.00;;;;;;;13.65;100.00;100502.16;4986344;28;20307;-79
2023/09/15 06:37:08;;;;;;;4.87;3.70;;;;;;;13.71;100.00;100502.91;4984402;28;20304;-78
2023/09/15 06:39:35;;;;;;;3.70;3.27;;;;;;;13.84;100.00;100497.50;4974308;28;20269;-80
2023/09/15 06:42:01;;;;;;;3.90;3.50;;;;;;;13.93;100.00;100492.09;4975629;28;20237;-81
2023/09/15 06:44:26;;;;;;;4.43;3.87;;;;;;;14.01;100.00;100482.41;4981838;28;20908;-78
2023/09/15 06:46:51;;;;;;;4.57;4.17;;;;;;;14.02;100.00;100497.13;4980161;28;20575;-79
2023/09/15 06:49:21;;;;;;;4.53;3.83;;;;;;;14.04;100.00;100494.50;4975464;28;20199;-79
2023/09/15 06:51:49;;;;;;;6.77;4.70;;;;;;;14.14;100.00;100492.56;4976673;28;20256;-79
2023/09/15 06:54:15;;;;;;;4.87;4.10;;;;;;;14.25;100.00;100498.41;4988529;28;20225;-79
2023/09/15 06:56:40;;;;;;;4.37;3.93;;;;;;;14.44;100.00;100496.25;4975930;28;20213;-79
2023/09/15 06:59:05;;;;;;;4.90;3.90;;;;;;;14.67;100.00;100487.06;4975643;28;20197;-79
2023/09/15 07:01:31;;;;;;;4.37;3.50;;;;;;;15.02;100.00;100484.59;4985191;28;20732;-79
2023/09/15 07:03:56;;;;;;;4.17;3.77;;;;;;;15.32;100.00;100485.56;4985119;28;20228;-80
2023/09/15 07:06:21;;;;;;;6.20;4.50;;;;;;;15.29;100.00;100490.84;4976978;28;20581;-79
2023/09/15 07:08:49;;;;;;;4.97;3.47;;;;;;;15.54;100.00;100487.63;4978313;28;20698;-78
2023/09/15 07:11:14;;;;;;;4.97;4.10;;;;;;;15.87;100.00;100495.47;4972709;28;20192;-79
2023/09/15 07:13:40;;;;;;;5.83;3.50;;;;;;;16.13;100.00;100489.50;4967565;28;20220;-80
2023/09/15 07:16:05;;;;;;;5.10;3.77;;;;;;;16.25;100.00;100493.50;4958585;28;20194;-79
2023/09/15 07:18:30;;;;;;;4.00;3.10;;;;;;;16.48;100.00;100489.38;4960285;28;20777;-80
2023/09/15 07:20:55;;;;;;;3.77;3.20;;;;;;;16.80;100.00;100484.03;4966220;28;20243;-82
2023/09/15 07:23:21;;;;;;;3.93;3.50;;;;;;;17.04;100.00;100483.25;4980496;28;20212;-81
2023/09/15 07:25:47;;;;;;;5.07;4.07;;;;;;;16.93;100.00;100482.72;4971307;28;20206;-80
2023/09/15 07:28:13;;;;;;;5.60;3.47;;;;;;;16.97;100.00;100476.53;4972949;28;20189;-80
2023/09/15 07:30:38;;;;;;;4.43;2.80;;;;;;;17.30;100.00;100472.84;4971766;28;20265;-79
2023/09/15 07:33:03;;;;;;;6.63;3.50;;;;;;;16.84;100.00;100475.19;4974690;28;20269;-79
2023/09/15 07:35:29;;;;;;;4.67;3.50;;;;;;;17.15;100.00;100474.22;4980613;28;20220;-78
2023/09/15 07:37:55;;;;;;;5.30;3.63;;;;;;;17.05;100.00;100471.91;4963222;28;20218;-78
2023/09/15 07:40:22;;;;;;;3.60;2.90;;;;;;;17.36;100.00;100462.19;4971648;28;20190;-79
2023/09/15 07:42:48;;;;;;;4.33;3.53;;;;;;;17.16;100.00;100468.94;4967127;28;20193;-79
2023/09/15 07:45:13;;;;;;;4.50;3.30;;;;;;;17.43;100.00;100473.28;4964579;28;20279;-79
2023/09/15 07:47:38;;;;;;;5.07;3.47;;;;;;;17.23;100.00;100469.59;4969949;28;20201;-79
2023/09/15 07:50:04;;;;;;;4.87;3.53;;;;;;;17.11;100.00;100465.59;4966932;28;20272;-79
2023/09/15 07:52:30;;;;;;;5.63;3.47;;;;;;;16.87;100.00;100468.09;4959781;28;20257;-79
2023/09/15 07:54:55;;;;;;;5.20;3.27;;;;;;;16.67;100.00;100463.53;4963836;28;20213;-78
2023/09/15 07:57:20;;;;;;;5.07;3.23;;;;;;;16.82;100.00;100459.53;4963565;28;20222;-78
2023/09/15 07:59:46;;;;;;;3.47;3.13;;;;;;;16.74;100.00;100461.56;4965467;28;20194;-78
2023/09/15 08:02:11;;;;;;;5.50;3.97;;;;;;;16.78;100.00;100457.97;4969428;28;20208;-79
2023/09/15 08:04:36;;;;;;;3.93;3.47;;;;;;;16.63;100.00;100454.06;4968059;28;20218;-78
2023/09/15 08:07:04;;;;;;;5.63;3.80;;;;;;;16.57;100.00;100449.88;4960510;28;20649;-78
2023/09/15 08:09:29;;;;;;;6.07;3.80;;;;;;;16.78;100.00;100450.13;4964066;28;20282;-78
2023/09/15 08:11:59;;;;;;;5.73;3.80;;;;;;;16.84;100.00;100449.91;4960940;28;20261;-79
2023/09/15 08:14:25;;;;;;;5.00;3.70;;;;;;;16.75;100.00;100456.28;4962422;28;20246;-79
2023/09/15 08:16:50;;;;;;;4.37;3.10;;;;;;;16.93;100.00;100451.38;4957484;28;20698;-78
2023/09/15 08:19:15;;;;;;;4.53;3.57;;;;;;;17.04;100.00;100453.66;4960350;28;20198;-78
2023/09/15 08:21:41;;;;;;;3.70;3.40;;;;;;;17.04;100.00;100445.81;4957702;28;20248;-80
2023/09/15 08:24:06;;;;;;;5.13;3.53;;;;;;;17.15;100.00;100448.09;4953378;28;20216;-80
2023/09/15 08:26:31;;;;;;;5.50;3.60;;;;;;;17.20;100.00;100443.53;4963098;28;20189;-79
2023/09/15 08:28:57;;;;;;;4.23;3.20;;;;;;;17.43;100.00;100445.34;4952976;28;20188;-79
2023/09/15 08:31:22;;;;;;;3.40;3.10;;;;;;;17.61;100.00;100446.47;4965104;28;20271;-77
2023/09/15 08:33:47;;;;;;;3.93;3.50;;;;;;;17.68;100.00;100447.94;4965682;28;20216;-77
2023/09/15 08:36:13;;;;;;;3.97;3.40;;;;;;;17.90;100.00;100441.94;4959341;28;20197;-78
2023/09/15 08:38:38;;;;;;;3.33;3.03;;;;;;;18.06;100.00;100439.63;4959658;28;20213;-78
2023/09/15 08:41:17;;;;;;;6.03;3.53;;;;;;;17.89;100.00;100445.47;4965179;28;20194;-77
2023/09/15 08:43:44;;;;;;;4.97;3.63;;;;;;;17.74;100.00;100435.56;4970992;28;20247;-78
2023/09/15 08:46:11;;;;;;;5.33;3.93;;;;;;;17.74;100.00;100425.94;4981656;28;20238;-79
2023/09/15 08:48:40;;;;;;;3.33;3.03;;;;;;;17.99;100.00;100430.31;4976443;28;20280;-78
2023/09/15 08:51:06;;;;;;;5.13;3.53;;;;;;;18.09;100.00;100429.03;4972866;28;20224;-78
2023/09/15 08:53:32;;;;;;;3.87;3.50;;;;;;;18.34;100.00;100422.00;4970675;28;20315;-80
2023/09/15 08:55:58;;;;;;;8.60;4.03;;;;;;;18.34;100.00;100432.47;4981026;28;20211;-77
2023/09/15 08:58:25;;;;;;;5.77;3.83;;;;;;;18.12;100.00;100425.44;4962395;28;20280;-77
2023/09/15 09:00:53;;;;;;;5.20;3.80;;;;;;;18.28;100.00;100426.56;4976950;28;20189;-80
2023/09/15 09:03:22;;;;;;;5.60;3.60;;;;;;;18.42;100.00;100420.78;4983724;28;20258;-79
2023/09/15 09:05:49;;;;;;;5.33;3.90;;;;;;;18.36;100.00;100422.81;4979413;28;20299;-78
2023/09/15 09:08:17;;;;;;;5.10;3.60;;;;;;;18.57;100.00;100419.31;4983954;28;20195;-79
2023/09/15 09:10:44;;;;;;;3.97;3.47;;;;;;;18.72;100.00;100407.38;4968639;28;20185;-79
2023/09/15 09:13:10;;;;;;;3.77;3.47;;;;;;;18.55;100.00;100410.66;4981262;28;20740;-80
2023/09/15 09:15:36;;;;;;;5.20;3.60;;;;;;;18.66;100.00;100412.00;4970437;28;20197;-81
2023/09/15 09:18:13;;;;;;;4.13;3.33;;;;;;;18.67;100.00;100401.44;4971838;28;20201;-79
2023/09/15 09:20:39;;;;;;;6.03;3.60;;;;;;;19.07;100.00;100405.97;4982414;28;20682;-81
2023/09/15 09:23:06;;;;;;;4.77;3.27;;;;;;;19.17;100.00;100402.88;4977531;28;20248;-80
2023/09/15 09:25:33;;;;;;;4.33;3.93;;;;;;;19.26;100.00;100411.28;4975293;28;20268;-79
2023/09/15 09:28:00;;;;;;;4.80;3.50;;;;;;;19.55;100.00;100409.16;4971167;28;20218;-80
2023/09/15 09:30:29;;;;;;;7.13;3.83;;;;;;;19.52;100.00;100404.88;4969197;28;20186;-81
2023/09/15 09:32:59;;;;;;;4.23;3.57;;;;;;;19.79;100.00;100404.56;4975331;28;20803;-80
2023/09/15 09:35:25;;;;;;;4.40;3.60;;;;;;;19.87;100.00;100409.50;4991777;28;20198;-80
2023/09/15 09:37:52;;;;;;;6.27;3.67;;;;;;;19.75;100.00;100387.25;4970612;28;20223;-79
2023/09/15 09:40:18;;;;;;;5.63;3.93;;;;;;;19.93;100.00;100394.31;4967705;28;20186;-79
2023/09/15 09:42:45;;;;;;;4.07;3.50;;;;;;;20.02;100.00;100389.53;4979294;28;20634;-78
2023/09/15 09:45:10;;;;;;;6.13;3.30;;;;;;;19.97;100.00;100381.88;4967272;28;20209;-77
2023/09/15 09:47:36;;;;;;;4.23;3.67;;;;;;;20.08;100.00;100384.84;4971497;28;20322;-78
2023/09/15 09:50:06;;;;;;;5.43;3.80;;;;;;;20.33;100.00;100380.19;4973783;28;20185;-79
2023/09/15 09:52:32;;;;;;;4.50;3.80;;;;;;;20.41;100.00;100381.53;4965154;28;20240;-79
2023/09/15 09:55:04;;;;;;;5.57;3.80;;;;;;;20.66;100.00;100372.44;4982106;28;20252;-79
2023/09/15 09:57:29;;;;;;;5.27;3.93;;;;;;;20.48;100.00;100368.09;4971245;28;20296;-81
2023/09/15 09:59:55;;;;;;;4.40;4.00;;;;;;;20.53;100.00;100360.81;4972371;28;20714;-79
2023/09/15 10:02:20;;;;;;;3.83;3.43;;;;;;;20.74;100.00;100358.91;4973795;28;20746;-78
2023/09/15 10:04:45;;;;;;;7.23;4.23;;;;;;;20.70;100.00;100355.56;4973552;28;20221;-78
2023/09/15 10:07:12;;;;;;;7.60;3.90;;;;;;;20.88;100.00;100352.09;4968981;28;20198;-79
2023/09/15 10:09:39;;;;;;;4.70;4.17;;;;;;;20.92;99.92;100351.91;4973348;28;20200;-77
2023/09/15 10:12:04;;;;;;;4.30;3.90;;;;;;;20.77;99.65;100343.00;4972810;28;20219;-78
2023/09/15 10:14:30;;;;;;;4.37;3.97;;;;;;;20.85;100.00;100337.34;4974245;28;20229;-78
2023/09/15 10:16:57;;;;;;;5.80;4.50;;;;;;;21.13;99.99;100342.03;4964816;28;20214;-77
2023/09/15 10:19:24;;;;;;;5.00;4.50;;;;;;;21.02;98.81;100339.13;4970054;28;20194;-79
2023/09/15 10:21:50;;;;;;;4.00;3.37;;;;;;;21.20;98.35;100333.81;4973400;28;20217;-79
2023/09/15 10:24:16;;;;;;;4.40;4.00;;;;;;;21.32;99.26;100315.59;4970853;28;20304;-79
2023/09/15 10:26:42;;;;;;;9.50;4.30;;;;;;;21.35;97.48;100321.63;4979370;28;20244;-80
2023/09/15 10:29:10;;;;;;;4.80;4.27;;;;;;;21.52;97.45;100320.72;4970920;28;20194;-78
2023/09/15 10:31:35;;;;;;;4.27;3.87;;;;;;;21.69;98.20;100317.19;4962401;28;20194;-79
2023/09/15 10:34:02;;;;;;;4.80;4.40;;;;;;;21.51;96.20;100319.88;4969676;28;20220;-79
2023/09/15 10:36:28;;;;;;;5.43;4.10;;;;;;;21.74;96.22;100315.13;4963103;28;20265;-80
2023/09/15 10:38:54;;;;;;;4.43;4.03;;;;;;;21.90;95.67;100310.72;4961678;28;20209;-79
2023/09/15 10:41:29;;;;;;;6.70;4.00;;;;;;;21.74;95.19;100312.50;4963286;28;20205;-80
2023/09/15 10:43:55;;;;;;;4.87;3.60;;;;;;;21.83;96.11;100308.50;4962525;28;20850;-79
2023/09/15 10:46:21;;;;;;;6.13;4.60;;;;;;;21.82;94.43;100312.09;4963269;28;20191;-80
2023/09/15 10:48:47;;;;;;;4.20;3.80;;;;;;;22.06;94.47;100307.22;4962518;28;20967;-79
2023/09/15 10:51:18;;;;;;;4.97;4.30;;;;;;;22.04;92.84;100293.28;4961032;28;20689;-80
2023/09/15 10:53:49;;;;;;;5.20;4.67;;;;;;;22.11;93.86;100293.78;4964414;28;20213;-79
2023/09/15 10:56:16;;;;;;;6.07;4.40;;;;;;;22.23;93.42;100286.03;4961660;28;20186;-80
2023/09/15 10:58:42;;;;;;;4.43;4.03;;;;;;;22.17;93.96;100293.44;4961618;28;20194;-80
2023/09/15 11:01:11;;;;;;;4.10;3.80;;;;;;;22.17;94.46;100285.53;4961555;28;20197;-80
2023/09/15 11:03:37;;;;;;;5.80;4.50;;;;;;;22.32;92.96;100289.91;4979938;28;20287;-80
2023/09/15 11:06:06;;;;;;;5.43;4.63;;;;;;;22.35;93.26;100287.09;4976418;28;20189;-79
2023/09/15 11:08:32;;;;;;;4.57;4.17;;;;;;;22.33;93.32;100288.09;4967546;28;20197;-79
2023/09/15 11:11:07;;;;;;;4.23;3.60;;;;;;;22.52;92.89;100282.66;4967351;28;20244;-79
2023/09/15 11:13:33;;;;;;;5.13;3.90;;;;;;;22.51;92.53;100281.78;4970555;28;20225;-80